Time;durP1;ratioP1;P1;durP2;ratioP2;P2;SDS_P1;SDS_P2;PMS_P1;PMS_P2;Temp;Humidity;BMP_temperature;BMP_pressure;BME280_temperature;BME280_humidity;BME280_pressure;Samples;Min_cycle;Max_cycle;Signal;HPM_P1;HPM_P2
2023/01/03 00:01:32;;;;;;;2.30;2.10;;;;;;;;;;5076552;28;20329;-56
2023/01/03 00:03:59;;;;;;;2.57;2.37;;;;;;;;;;5082650;28;20235;-55
2023/01/03 00:06:26;;;;;;;2.20;1.87;;;;;;;;;;5082952;28;21130;-56
2023/01/03 00:08:53;;;;;;;2.67;2.27;;;;;;;;;;5074037;28;20239;-56
2023/01/03 00:12:22;;;;;;;3.17;2.23;;;;;;;;;;5083124;28;20325;-55
2023/01/03 00:14:08;;;;;;;3.37;1.93;;;;;;;;;;5074437;28;20250;-54
2023/01/03 00:16:35;;;;;;;3.20;1.90;;;;;;;;;;5080792;28;20249;-54
2023/01/03 00:19:05;;;;;;;2.10;1.73;;;;;;;;;;5078064;28;20235;-54
2023/01/03 00:21:31;;;;;;;3.10;2.53;;;;;;;;;;5075581;28;20688;-55
2023/01/03 00:23:57;;;;;;;2.43;2.23;;;;;;;;;;5068977;28;20235;-55
2023/01/03 00:26:25;;;;;;;5.10;2.10;;;;;;;;;;5073958;28;20313;-56
2023/01/03 00:28:51;;;;;;;2.00;1.90;;;;;;;;;;5080386;28;20739;-55
2023/01/03 00:31:18;;;;;;;6.67;2.30;;;;;;;;;;5075830;28;20236;-56
2023/01/03 00:33:44;;;;;;;3.87;2.07;;;;;;;;;;5072775;28;20243;-55
2023/01/03 00:36:11;;;;;;;2.50;1.70;;;;;;;;;;5073300;28;20741;-54
2023/01/03 00:38:38;;;;;;;2.60;1.60;;;;;;;;;;5074638;28;20231;-54
2023/01/03 00:41:05;;;;;;;2.53;1.73;;;;;;;;;;5065126;28;20234;-56
2023/01/03 00:43:33;;;;;;;2.93;2.10;;;;;;;;;;5072486;28;20250;-55
2023/01/03 00:46:00;;;;;;;1.80;1.70;;;;;;;;;;5078423;28;20799;-55
2023/01/03 00:48:26;;;;;;;4.33;1.97;;;;;;;;;;5074795;28;20661;-55
2023/01/03 00:50:52;;;;;;;2.40;1.70;;;;;;;;;;5084481;28;20227;-57
2023/01/03 00:53:19;;;;;;;2.67;1.73;;;;;;;;;;5081201;28;20728;-55
2023/01/03 00:55:45;;;;;;;4.67;2.17;;;;;;;;;;5078695;28;20254;-58
2023/01/03 00:58:12;;;;;;;1.53;1.43;;;;;;;;;;5086196;28;20246;-56
2023/01/03 01:00:40;;;;;;;2.17;1.90;;;;;;;;;;5086180;28;20234;-55
2023/01/03 01:03:06;;;;;;;4.00;1.97;;;;;;;;;;5063772;28;20235;-56
2023/01/03 01:05:33;;;;;;;2.33;1.67;;;;;;;;;;5060721;28;20334;-57
2023/01/03 01:07:59;;;;;;;3.77;1.97;;;;;;;;;;5074294;28;20239;-55
2023/01/03 01:10:26;;;;;;;3.37;1.83;;;;;;;;;;5073416;28;20343;-56
2023/01/03 01:12:56;;;;;;;2.00;1.80;;;;;;;;;;5071818;28;20261;-56
2023/01/03 01:15:22;;;;;;;2.77;2.33;;;;;;;;;;5059640;28;20239;-54
2023/01/03 01:17:50;;;;;;;1.90;1.73;;;;;;;;;;5077910;28;20230;-57
2023/01/03 01:20:17;;;;;;;2.97;1.67;;;;;;;;;;5072941;28;20275;-56
2023/01/03 01:22:43;;;;;;;2.07;1.90;;;;;;;;;;5080287;28;20243;-55
2023/01/03 01:25:10;;;;;;;2.20;1.97;;;;;;;;;;5070873;28;20318;-54
2023/01/03 01:27:36;;;;;;;2.80;1.73;;;;;;;;;;5079199;28;20311;-56
2023/01/03 01:30:03;;;;;;;4.57;2.10;;;;;;;;;;5080037;28;20337;-56
2023/01/03 01:32:30;;;;;;;1.93;1.83;;;;;;;;;;5075961;28;20239;-56
2023/01/03 01:34:58;;;;;;;1.63;1.53;;;;;;;;;;5067974;28;20254;-55
2023/01/03 01:37:24;;;;;;;2.67;1.73;;;;;;;;;;5071165;28;20257;-56
2023/01/03 01:39:50;;;;;;;3.40;1.73;;;;;;;;;;5072820;28;20250;-55
2023/01/03 01:45:01;;;;;;;2.80;1.87;;;;;;;;;;5071782;28;20252;-55
2023/01/03 01:47:35;;;;;;;1.83;1.67;;;;;;;;;;5075156;28;20350;-55
2023/01/03 01:50:07;;;;;;;1.50;1.17;;;;;;;;;;5074357;28;20269;-55
2023/01/03 01:52:35;;;;;;;2.03;1.40;;;;;;;;;;5064915;28;20238;-58
2023/01/03 01:55:03;;;;;;;2.87;1.60;;;;;;;;;;5067695;28;20242;-56
2023/01/03 01:57:30;;;;;;;2.77;1.23;;;;;;;;;;5067640;28;20319;-56
2023/01/03 01:59:57;;;;;;;1.43;1.23;;;;;;;;;;5072349;28;20311;-54
2023/01/03 02:02:26;;;;;;;1.87;1.77;;;;;;;;;;5071918;28;20247;-55
2023/01/03 02:04:54;;;;;;;2.77;1.63;;;;;;;;;;5070374;28;20230;-55
2023/01/03 02:07:22;;;;;;;2.90;1.50;;;;;;;;;;5065639;28;20262;-55
2023/01/03 02:09:50;;;;;;;3.93;2.10;;;;;;;;;;5079127;28;20226;-55
2023/01/03 02:15:22;;;;;;;1.60;1.50;;;;;;;;;;4984655;28;20248;-54
2023/01/03 02:17:54;;;;;;;5.90;1.70;;;;;;;;;;5062382;28;20250;-55
2023/01/03 02:20:28;;;;;;;3.30;1.40;;;;;;;;;;5071816;28;20257;-55
2023/01/03 02:23:15;;;;;;;3.07;1.50;;;;;;;;;;5074629;28;20242;-55
2023/01/03 02:26:00;;;;;;;2.90;1.43;;;;;;;;;;5079631;28;20222;-56
2023/01/03 02:28:43;;;;;;;2.60;1.60;;;;;;;;;;5078618;28;20241;-55
2023/01/03 02:31:13;;;;;;;3.00;1.50;;;;;;;;;;5078161;28;20232;-55
2023/01/03 02:33:42;;;;;;;1.77;1.43;;;;;;;;;;5084397;28;20246;-55
2023/01/03 02:36:13;;;;;;;1.97;1.43;;;;;;;;;;5081835;28;20305;-54
2023/01/03 02:38:46;;;;;;;1.60;1.10;;;;;;;;;;5085281;28;20249;-55
2023/01/03 02:41:18;;;;;;;2.50;2.10;;;;;;;;;;5085179;28;20265;-55
2023/01/03 02:43:49;;;;;;;2.83;1.37;;;;;;;;;;5085154;28;20506;-56
2023/01/03 02:46:22;;;;;;;2.90;1.47;;;;;;;;;;5082954;28;20242;-55
2023/01/03 02:48:53;;;;;;;1.53;1.40;;;;;;;;;;5081462;28;20276;-55
2023/01/03 02:51:22;;;;;;;1.43;1.20;;;;;;;;;;5072488;28;20235;-55
2023/01/03 02:53:50;;;;;;;4.67;1.50;;;;;;;;;;5083254;28;20299;-54
2023/01/03 02:56:19;;;;;;;1.80;1.63;;;;;;;;;;5089787;28;20234;-55
2023/01/03 02:58:48;;;;;;;4.00;1.63;;;;;;;;;;5083492;28;20239;-55
2023/01/03 03:01:16;;;;;;;3.53;1.60;;;;;;;;;;5084289;28;20231;-54
2023/01/03 03:03:45;;;;;;;2.33;1.70;;;;;;;;;;5080330;28;20230;-56
2023/01/03 03:06:14;;;;;;;1.27;1.27;;;;;;;;;;5077653;28;20278;-55
2023/01/03 03:08:43;;;;;;;1.50;1.40;;;;;;;;;;5071468;28;20252;-54
2023/01/03 03:13:55;;;;;;;1.77;1.43;;;;;;;;;;5083932;28;20237;-55
2023/01/03 03:16:46;;;;;;;2.00;1.40;;;;;;;;;;5079847;28;20227;-56
2023/01/03 03:24:48;;;;;;;2.53;1.50;;;;;;;;;;5074115;28;20227;-55
2023/01/03 03:24:52;;;;;;;1.33;1.23;;;;;;;;;;5080593;28;20238;-55
2023/01/03 03:30:07;;;;;;;1.70;1.60;;;;;;;;;;5079392;28;20654;-55
2023/01/03 03:32:34;;;;;;;3.10;1.80;;;;;;;;;;5076851;28;20315;-55
2023/01/03 03:35:04;;;;;;;2.53;1.50;;;;;;;;;;5078637;28;20242;-55
2023/01/03 03:37:33;;;;;;;1.83;1.67;;;;;;;;;;5085109;28;20288;-55
2023/01/03 03:45:31;;;;;;;2.37;1.60;;;;;;;;;;5085075;28;20229;-55
2023/01/03 03:48:01;;;;;;;2.33;1.83;;;;;;;;;;5078414;28;20238;-55
2023/01/03 03:50:31;;;;;;;2.07;1.87;;;;;;;;;;5080110;28;20234;-55
2023/01/03 03:52:59;;;;;;;4.30;1.87;;;;;;;;;;5087801;28;20699;-55
2023/01/03 03:55:27;;;;;;;3.80;2.13;;;;;;;;;;5084066;28;20239;-55
2023/01/03 03:57:57;;;;;;;2.73;1.47;;;;;;;;;;5086233;28;20299;-56
2023/01/03 04:00:25;;;;;;;2.47;1.40;;;;;;;;;;5085723;28;20703;-55
2023/01/03 04:02:52;;;;;;;1.97;1.87;;;;;;;;;;5086266;28;20241;-55
2023/01/03 04:05:20;;;;;;;2.73;1.40;;;;;;;;;;5085984;28;20239;-56
2023/01/03 04:07:48;;;;;;;1.60;1.50;;;;;;;;;;5084726;28;20262;-56
2023/01/03 04:10:19;;;;;;;4.20;1.50;;;;;;;;;;5085830;28;20238;-54
2023/01/03 04:12:46;;;;;;;7.83;2.10;;;;;;;;;;5084930;28;20239;-55
2023/01/03 04:15:13;;;;;;;3.43;1.40;;;;;;;;;;5081802;28;20241;-55
2023/01/03 04:17:39;;;;;;;3.27;1.80;;;;;;;;;;5083604;28;20322;-56
2023/01/03 04:20:06;;;;;;;2.63;1.50;;;;;;;;;;5085901;28;20242;-55
2023/01/03 04:22:33;;;;;;;1.70;1.60;;;;;;;;;;5074241;28;20226;-55
2023/01/03 04:25:01;;;;;;;4.97;1.63;;;;;;;;;;5080680;28;20310;-56
2023/01/03 04:27:28;;;;;;;1.90;1.70;;;;;;;;;;5079872;28;20231;-55
2023/01/03 04:29:55;;;;;;;2.23;1.53;;;;;;;;;;5072099;28;20584;-56
2023/01/03 04:32:22;;;;;;;3.97;1.60;;;;;;;;;;5076367;28;20227;-55
2023/01/03 04:34:50;;;;;;;2.37;1.80;;;;;;;;;;5075656;28;20233;-56
2023/01/03 04:37:17;;;;;;;3.23;1.67;;;;;;;;;;5084495;28;20364;-55
2023/01/03 04:39:44;;;;;;;1.77;1.40;;;;;;;;;;5071861;28;20231;-55
2023/01/03 04:44:52;;;;;;;2.30;1.43;;;;;;;;;;5081500;28;20272;-56
2023/01/03 04:47:19;;;;;;;4.03;1.50;;;;;;;;;;5069827;28;20235;-55
2023/01/03 04:49:46;;;;;;;5.47;2.03;;;;;;;;;;5078599;28;20816;-54
2023/01/03 04:52:13;;;;;;;5.30;1.50;;;;;;;;;;5081650;28;20250;-55
2023/01/03 04:54:40;;;;;;;2.77;2.43;;;;;;;;;;5077512;28;20256;-55
2023/01/03 04:57:06;;;;;;;2.30;1.60;;;;;;;;;;5078571;28;20231;-56
2023/01/03 04:59:35;;;;;;;3.93;1.80;;;;;;;;;;5084681;28;20230;-55
2023/01/03 05:02:01;;;;;;;4.37;2.03;;;;;;;;;;5079991;28;20295;-55
2023/01/03 05:04:28;;;;;;;1.83;1.60;;;;;;;;;;5083602;28;20237;-55
2023/01/03 05:06:55;;;;;;;1.67;1.40;;;;;;;;;;5082698;28;20326;-55
2023/01/03 05:09:21;;;;;;;2.03;1.83;;;;;;;;;;5079905;28;20238;-56
2023/01/03 05:11:50;;;;;;;2.07;1.60;;;;;;;;;;5081761;28;20231;-55
2023/01/03 05:14:17;;;;;;;3.27;1.70;;;;;;;;;;5080119;28;20231;-55
2023/01/03 05:16:45;;;;;;;2.93;1.90;;;;;;;;;;5084557;28;20238;-55
2023/01/03 05:19:11;;;;;;;4.00;2.03;;;;;;;;;;5081428;28;25260;-54
2023/01/03 05:27:07;;;;;;;3.43;1.90;;;;;;;;;;5071378;28;20229;-55
2023/01/03 05:29:34;;;;;;;5.00;2.03;;;;;;;;;;5077781;28;20767;-55
2023/01/03 05:32:02;;;;;;;2.27;1.93;;;;;;;;;;5065642;28;21009;-57
2023/01/03 05:34:29;;;;;;;4.37;2.97;;;;;;;;;;5068425;28;20304;-60
2023/01/03 05:36:56;;;;;;;4.13;2.53;;;;;;;;;;5072135;28;20257;-55
2023/01/03 05:39:22;;;;;;;5.03;2.17;;;;;;;;;;5079161;28;20269;-58
2023/01/03 05:42:01;;;;;;;3.90;2.80;;;;;;;;;;5081113;28;20696;-55
2023/01/03 05:44:29;;;;;;;2.13;1.93;;;;;;;;;;5068782;28;20239;-56
2023/01/03 05:46:56;;;;;;;2.90;1.97;;;;;;;;;;5074666;28;20250;-60
2023/01/03 05:49:24;;;;;;;2.43;2.23;;;;;;;;;;5059820;28;20257;-56
2023/01/03 05:51:50;;;;;;;3.80;1.80;;;;;;;;;;5066507;28;20230;-56
2023/01/03 05:54:18;;;;;;;5.60;2.70;;;;;;;;;;5080483;28;20230;-55
2023/01/03 05:56:45;;;;;;;2.00;1.90;;;;;;;;;;5073284;28;20656;-56
2023/01/03 05:59:12;;;;;;;3.90;1.93;;;;;;;;;;5079751;28;20245;-57
2023/01/03 06:01:39;;;;;;;4.60;2.00;;;;;;;;;;5074400;28;20306;-56
2023/01/03 06:04:06;;;;;;;5.03;2.13;;;;;;;;;;5073041;28;20249;-61
2023/01/03 06:06:34;;;;;;;2.80;2.23;;;;;;;;;;5079258;28;20325;-55
2023/01/03 06:09:01;;;;;;;2.77;1.93;;;;;;;;;;5073483;28;20266;-62
2023/01/03 06:11:27;;;;;;;6.37;2.17;;;;;;;;;;5078973;28;20230;-56
2023/01/03 06:13:54;;;;;;;5.00;1.77;;;;;;;;;;5068956;28;20234;-56
2023/01/03 06:19:06;;;;;;;2.00;1.80;;;;;;;;;;5065535;28;20751;-56
2023/01/03 06:21:34;;;;;;;4.67;2.07;;;;;;;;;;5074072;28;20245;-55
2023/01/03 06:24:00;;;;;;;5.07;2.07;;;;;;;;;;5073538;28;20242;-56
2023/01/03 06:26:27;;;;;;;3.47;2.90;;;;;;;;;;5069494;28;20287;-56
2023/01/03 06:28:54;;;;;;;6.27;2.30;;;;;;;;;;5073089;28;20230;-55
2023/01/03 06:31:21;;;;;;;3.93;1.73;;;;;;;;;;5081391;28;20783;-58
2023/01/03 06:33:48;;;;;;;5.40;1.87;;;;;;;;;;5077253;28;20611;-56
2023/01/03 06:36:16;;;;;;;1.80;1.70;;;;;;;;;;5078355;28;20238;-57
2023/01/03 06:38:44;;;;;;;4.87;2.37;;;;;;;;;;5069214;28;20313;-57
2023/01/03 06:41:12;;;;;;;5.67;2.80;;;;;;;;;;5078565;28;20280;-55
2023/01/03 06:43:38;;;;;;;3.70;2.73;;;;;;;;;;5071342;28;20812;-56
2023/01/03 06:54:21;;;;;;;2.97;2.70;;;;;;;;;;5078486;28;20233;-56
2023/01/03 06:56:48;;;;;;;3.60;2.63;;;;;;;;;;5079067;28;20234;-56
2023/01/03 06:59:15;;;;;;;7.83;3.33;;;;;;;;;;5077086;28;20655;-56
2023/01/03 07:01:42;;;;;;;9.53;3.63;;;;;;;;;;5078247;28;20705;-56
2023/01/03 07:04:09;;;;;;;3.37;2.77;;;;;;;;;;5077798;28;20268;-55
2023/01/03 07:06:35;;;;;;;3.07;2.27;;;;;;;;;;5067263;28;20720;-55
2023/01/03 07:09:02;;;;;;;3.97;2.40;;;;;;;;;;5067312;28;20292;-55
2023/01/03 07:11:31;;;;;;;8.17;3.17;;;;;;;;;;5084387;28;20252;-56
2023/01/03 07:13:59;;;;;;;2.73;2.53;;;;;;;;;;5070405;28;20994;-55
2023/01/03 07:16:27;;;;;;;5.53;3.50;;;;;;;;;;5077365;28;21096;-55
2023/01/03 07:18:53;;;;;;;3.20;2.80;;;;;;;;;;5078279;28;20230;-56
2023/01/03 07:21:20;;;;;;;5.27;3.27;;;;;;;;;;5087331;28;20223;-55
2023/01/03 07:23:47;;;;;;;3.57;2.63;;;;;;;;;;5078441;28;20235;-56
2023/01/03 07:26:13;;;;;;;2.50;2.27;;;;;;;;;;5078983;28;20250;-56
2023/01/03 07:28:41;;;;;;;5.03;3.40;;;;;;;;;;5075548;28;20248;-56
2023/01/03 07:31:08;;;;;;;4.63;3.40;;;;;;;;;;5073114;28;20763;-55
2023/01/03 07:33:36;;;;;;;3.40;2.67;;;;;;;;;;5083300;28;20234;-55
2023/01/03 07:36:03;;;;;;;4.57;2.80;;;;;;;;;;5075411;28;20230;-54
2023/01/03 07:38:29;;;;;;;4.40;2.90;;;;;;;;;;5081229;28;20249;-55
2023/01/03 07:40:56;;;;;;;5.53;2.93;;;;;;;;;;5084536;28;20239;-55
2023/01/03 07:43:37;;;;;;;5.37;3.20;;;;;;;;;;5083317;28;20242;-55
2023/01/03 07:46:10;;;;;;;5.73;3.03;;;;;;;;;;5083479;28;20228;-54
2023/01/03 07:48:37;;;;;;;5.90;3.97;;;;;;;;;;5081924;28;20226;-57
2023/01/03 07:51:04;;;;;;;6.20;2.87;;;;;;;;;;5085082;28;20250;-56
2023/01/03 07:53:31;;;;;;;3.83;3.30;;;;;;;;;;5076063;28;20265;-55
2023/01/03 07:56:05;;;;;;;2.97;2.67;;;;;;;;;;5080426;28;20250;-55
2023/01/03 07:58:32;;;;;;;6.10;3.13;;;;;;;;;;5080990;28;20237;-56
2023/01/03 08:01:05;;;;;;;5.60;2.30;;;;;;;;;;5081001;28;20234;-56
2023/01/03 08:03:34;;;;;;;4.20;3.00;;;;;;;;;;5073813;28;20230;-55
2023/01/03 08:06:01;;;;;;;6.43;2.87;;;;;;;;;;5080880;28;20624;-56
2023/01/03 08:08:28;;;;;;;2.97;2.67;;;;;;;;;;5080188;28;20237;-56
2023/01/03 08:13:39;;;;;;;3.07;2.70;;;;;;;;;;5081721;28;20348;-56
2023/01/03 08:16:08;;;;;;;4.33;3.53;;;;;;;;;;5080832;28;20303;-57
2023/01/03 08:18:36;;;;;;;2.93;2.20;;;;;;;;;;5074458;28;20299;-55
2023/01/03 08:21:03;;;;;;;5.87;2.50;;;;;;;;;;5076475;28;20702;-56
2023/01/03 08:23:30;;;;;;;2.80;2.53;;;;;;;;;;5080338;28;20316;-56
2023/01/03 08:26:00;;;;;;;7.03;3.93;;;;;;;;;;5072013;28;20643;-55
2023/01/03 08:28:27;;;;;;;4.83;3.47;;;;;;;;;;5080036;28;20376;-55
2023/01/03 08:30:54;;;;;;;6.83;2.97;;;;;;;;;;5068870;28;20231;-55
2023/01/03 08:33:21;;;;;;;3.33;2.10;;;;;;;;;;5084872;28;20335;-55
2023/01/03 08:35:52;;;;;;;2.73;2.53;;;;;;;;;;5077340;28;20325;-56
2023/01/03 08:38:21;;;;;;;14.10;3.17;;;;;;;;;;5076864;28;20651;-56
2023/01/03 08:40:47;;;;;;;6.33;3.07;;;;;;;;;;5075373;28;20222;-56
2023/01/03 08:43:15;;;;;;;5.30;3.10;;;;;;;;;;5084430;28;20330;-56
2023/01/03 08:45:41;;;;;;;6.00;2.70;;;;;;;;;;5075183;28;20238;-56
2023/01/03 08:48:09;;;;;;;3.90;2.77;;;;;;;;;;5079036;28;20238;-56
2023/01/03 08:50:37;;;;;;;5.23;2.63;;;;;;;;;;5082899;28;20238;-56
2023/01/03 08:53:05;;;;;;;3.33;2.37;;;;;;;;;;5075418;28;20249;-55
2023/01/03 08:55:32;;;;;;;2.87;2.50;;;;;;;;;;5079240;28;20582;-54
2023/01/03 08:57:59;;;;;;;6.80;3.10;;;;;;;;;;5077328;28;20823;-56
2023/01/03 09:00:27;;;;;;;7.97;3.33;;;;;;;;;;5074756;28;20596;-56
2023/01/03 09:02:53;;;;;;;5.93;2.93;;;;;;;;;;5076314;28;20814;-55
2023/01/03 09:05:20;;;;;;;2.57;2.37;;;;;;;;;;5072277;28;20313;-56
2023/01/03 09:07:47;;;;;;;5.37;3.20;;;;;;;;;;5075717;28;20230;-55
2023/01/03 09:10:15;;;;;;;3.80;2.50;;;;;;;;;;5073274;28;20686;-55
2023/01/03 09:12:41;;;;;;;10.50;3.77;;;;;;;;;;5069611;28;20238;-55
2023/01/03 09:15:08;;;;;;;7.13;2.87;;;;;;;;;;5070638;28;20235;-59
2023/01/03 09:17:35;;;;;;;4.83;2.60;;;;;;;;;;5074719;28;20582;-55
2023/01/03 09:20:02;;;;;;;3.73;2.63;;;;;;;;;;5074015;28;20242;-56
2023/01/03 09:22:28;;;;;;;3.93;2.43;;;;;;;;;;5070653;28;20243;-55
2023/01/03 09:24:55;;;;;;;3.10;2.80;;;;;;;;;;5069260;28;20230;-55
2023/01/03 09:27:23;;;;;;;3.47;2.50;;;;;;;;;;5067032;28;20250;-55
2023/01/03 09:29:51;;;;;;;5.27;2.77;;;;;;;;;;5070929;28;20226;-56
2023/01/03 09:32:18;;;;;;;3.17;2.60;;;;;;;;;;5071734;28;20247;-55
2023/01/03 09:34:45;;;;;;;2.63;2.43;;;;;;;;;;5085603;28;20716;-56
2023/01/03 09:37:12;;;;;;;6.30;2.87;;;;;;;;;;5081222;28;20628;-55
2023/01/03 09:39:39;;;;;;;3.20;2.50;;;;;;;;;;5081522;28;20305;-59
2023/01/03 09:44:52;;;;;;;4.97;2.50;;;;;;;;;;5072646;28;20237;-55
2023/01/03 09:47:20;;;;;;;5.47;2.83;;;;;;;;;;5082749;28;20284;-54
2023/01/03 09:49:46;;;;;;;3.47;2.37;;;;;;;;;;5082015;28;20230;-56
2023/01/03 10:06:13;;;;;;;5.87;2.83;;;;;;;;;;5065694;28;20774;-56
2023/01/03 10:08:46;;;;;;;5.57;2.63;;;;;;;;;;5072813;28;20234;-55
2023/01/03 10:11:18;;;;;;;3.27;2.30;;;;;;;;;;5074535;28;20611;-55
2023/01/03 10:13:51;;;;;;;6.40;2.60;;;;;;;;;;5076999;28;20238;-54
2023/01/03 10:16:24;;;;;;;5.50;3.13;;;;;;;;;;5080587;28;20234;-56
2023/01/03 10:19:02;;;;;;;3.80;2.80;;;;;;;;;;5075579;28;20238;-54
2023/01/03 10:21:32;;;;;;;3.00;2.80;;;;;;;;;;5079487;28;20241;-54
2023/01/03 10:23:59;;;;;;;3.40;3.10;;;;;;;;;;5073435;28;20238;-55
2023/01/03 10:26:26;;;;;;;4.30;2.77;;;;;;;;;;5077874;28;20736;-55
2023/01/03 10:28:53;;;;;;;4.33;3.07;;;;;;;;;;5080067;28;20667;-55
2023/01/03 10:31:32;;;;;;;11.70;3.43;;;;;;;;;;5081175;28;20341;-54
2023/01/03 10:33:58;;;;;;;3.23;2.97;;;;;;;;;;5060082;28;20241;-55
2023/01/03 10:36:25;;;;;;;4.23;3.50;;;;;;;;;;5075353;28;20230;-55
2023/01/03 10:39:02;;;;;;;3.73;3.37;;;;;;;;;;5071723;28;20231;-55
2023/01/03 10:41:31;;;;;;;5.20;3.23;;;;;;;;;;5076141;28;20237;-55
2023/01/03 10:43:58;;;;;;;4.63;3.27;;;;;;;;;;5078027;28;20239;-56
2023/01/03 10:46:28;;;;;;;4.03;3.40;;;;;;;;;;5075201;28;20234;-55
2023/01/03 10:48:56;;;;;;;8.13;4.30;;;;;;;;;;5071387;28;20304;-53
2023/01/03 10:51:28;;;;;;;7.60;4.10;;;;;;;;;;5080986;28;20505;-54
2023/01/03 10:53:56;;;;;;;4.73;3.67;;;;;;;;;;5078805;28;20243;-53
2023/01/03 10:56:23;;;;;;;6.50;4.80;;;;;;;;;;5077480;28;20235;-53
2023/01/03 10:59:09;;;;;;;6.40;3.67;;;;;;;;;;5079985;28;20260;-54
2023/01/03 11:01:37;;;;;;;7.63;4.30;;;;;;;;;;5073956;28;20259;-54
2023/01/03 11:04:09;;;;;;;6.93;4.23;;;;;;;;;;5076020;28;20775;-55
2023/01/03 11:06:35;;;;;;;5.00;4.50;;;;;;;;;;5075416;28;20234;-54
2023/01/03 11:09:03;;;;;;;11.70;5.03;;;;;;;;;;5077883;28;20241;-55
2023/01/03 11:11:32;;;;;;;7.03;4.60;;;;;;;;;;5070801;28;20247;-55
2023/01/03 11:14:21;;;;;;;6.50;5.50;;;;;;;;;;5064522;28;20326;-54
2023/01/03 11:16:54;;;;;;;8.13;5.13;;;;;;;;;;5075986;28;20226;-54
2023/01/03 11:19:21;;;;;;;11.87;4.67;;;;;;;;;;5077337;28;20235;-57
2023/01/03 11:21:50;;;;;;;6.50;5.07;;;;;;;;;;5082488;28;20229;-54
2023/01/03 11:24:22;;;;;;;7.80;4.80;;;;;;;;;;5080436;28;20578;-54
2023/01/03 11:26:50;;;;;;;9.10;3.90;;;;;;;;;;5074143;28;20312;-54
2023/01/03 11:29:38;;;;;;;6.63;4.03;;;;;;;;;;5076656;28;20238;-55
2023/01/03 11:32:11;;;;;;;7.87;4.17;;;;;;;;;;5075556;28;20234;-58
2023/01/03 11:34:45;;;;;;;4.67;4.00;;;;;;;;;;5080343;28;20254;-54
2023/01/03 11:37:15;;;;;;;12.60;4.97;;;;;;;;;;5072886;28;20609;-54
2023/01/03 11:39:49;;;;;;;4.97;4.40;;;;;;;;;;5072951;28;20227;-54
2023/01/03 11:42:24;;;;;;;7.40;4.10;;;;;;;;;;5069977;28;20287;-55
2023/01/03 11:45:11;;;;;;;5.53;4.20;;;;;;;;;;5066999;28;20234;-54
2023/01/03 11:47:44;;;;;;;7.27;4.50;;;;;;;;;;5073065;28;20747;-54
2023/01/03 11:50:15;;;;;;;9.60;4.87;;;;;;;;;;5069332;28;20331;-55
2023/01/03 11:52:45;;;;;;;5.57;4.47;;;;;;;;;;5085176;28;20230;-56
2023/01/03 11:55:24;;;;;;;9.50;4.13;;;;;;;;;;5084341;28;20231;-61
2023/01/03 11:57:53;;;;;;;11.17;4.43;;;;;;;;;;5089071;28;20662;-54
2023/01/03 12:00:27;;;;;;;5.33;3.83;;;;;;;;;;5083414;28;20229;-53
2023/01/03 12:03:06;;;;;;;6.50;4.33;;;;;;;;;;5077919;28;20768;-55
2023/01/03 12:05:43;;;;;;;6.20;3.80;;;;;;;;;;5070047;28;20234;-55
2023/01/03 12:08:21;;;;;;;7.77;4.20;;;;;;;;;;5076442;28;20233;-57
2023/01/03 12:10:49;;;;;;;6.93;4.20;;;;;;;;;;5081422;28;20237;-54
2023/01/03 12:13:19;;;;;;;5.17;4.27;;;;;;;;;;5077397;28;20606;-56
2023/01/03 12:15:47;;;;;;;4.03;3.67;;;;;;;;;;5073189;28;20234;-55
2023/01/03 12:18:21;;;;;;;4.67;4.17;;;;;;;;;;5075465;28;20727;-56
2023/01/03 12:20:51;;;;;;;3.93;3.33;;;;;;;;;;5076774;28;20307;-54
2023/01/03 12:23:23;;;;;;;6.70;4.10;;;;;;;;;;5079327;28;20775;-53
2023/01/03 12:25:51;;;;;;;3.37;3.07;;;;;;;;;;5082834;28;20352;-55
2023/01/03 12:28:21;;;;;;;8.67;3.50;;;;;;;;;;5072182;28;20237;-53
2023/01/03 12:30:49;;;;;;;6.53;3.80;;;;;;;;;;5080538;28;20234;-53
2023/01/03 12:33:25;;;;;;;4.53;3.80;;;;;;;;;;5079606;28;20258;-54
2023/01/03 12:35:56;;;;;;;6.90;3.73;;;;;;;;;;5076309;28;20754;-54
2023/01/03 12:38:25;;;;;;;4.30;2.97;;;;;;;;;;5071242;28;20947;-54
2023/01/03 12:40:54;;;;;;;2.37;2.13;;;;;;;;;;5076590;28;20230;-55
2023/01/03 12:43:25;;;;;;;5.90;2.93;;;;;;;;;;5080115;28;20255;-55
2023/01/03 12:45:54;;;;;;;3.10;2.80;;;;;;;;;;5081443;28;20238;-54
2023/01/03 12:48:31;;;;;;;6.60;2.67;;;;;;;;;;5074991;28;20358;-55
2023/01/03 12:50:57;;;;;;;9.27;3.30;;;;;;;;;;5075505;28;20234;-55
2023/01/03 12:53:26;;;;;;;7.30;3.90;;;;;;;;;;5073981;28;20233;-55
2023/01/03 12:55:59;;;;;;;3.37;2.63;;;;;;;;;;5067827;28;20241;-58
2023/01/03 12:58:32;;;;;;;4.63;2.93;;;;;;;;;;5072881;28;20255;-57
2023/01/03 13:01:00;;;;;;;7.90;3.40;;;;;;;;;;5071770;28;20318;-56
2023/01/03 13:03:30;;;;;;;5.93;3.70;;;;;;;;;;5069674;28;20314;-58
2023/01/03 13:05:58;;;;;;;5.40;3.57;;;;;;;;;;5080035;28;20716;-56
2023/01/03 13:08:30;;;;;;;3.67;3.03;;;;;;;;;;5078936;28;21229;-56
2023/01/03 13:10:59;;;;;;;4.53;3.10;;;;;;;;;;5079093;28;20888;-56
2023/01/03 13:13:25;;;;;;;3.90;2.90;;;;;;;;;;5076248;28;20320;-56
2023/01/03 13:15:52;;;;;;;5.70;3.30;;;;;;;;;;5074579;28;20237;-56
2023/01/03 13:18:34;;;;;;;8.73;3.77;;;;;;;;;;5076554;28;20256;-55
2023/01/03 13:21:21;;;;;;;5.10;3.20;;;;;;;;;;5071474;28;20222;-55
2023/01/03 13:23:59;;;;;;;7.33;2.90;;;;;;;;;;5070638;28;20227;-56
2023/01/03 13:26:26;;;;;;;8.30;4.17;;;;;;;;;;5067102;28;20309;-56
2023/01/03 13:29:12;;;;;;;5.17;3.10;;;;;;;;;;5076922;28;20228;-54
2023/01/03 13:31:40;;;;;;;7.03;3.40;;;;;;;;;;5075536;28;20701;-58
2023/01/03 13:34:24;;;;;;;6.83;3.57;;;;;;;;;;5064491;28;20320;-57
2023/01/03 13:37:08;;;;;;;3.00;2.57;;;;;;;;;;5062414;28;20229;-56
2023/01/03 13:39:38;;;;;;;6.10;2.83;;;;;;;;;;5078352;28;20289;-57
2023/01/03 13:42:05;;;;;;;3.33;2.77;;;;;;;;;;5080894;28;20234;-56
2023/01/03 13:44:31;;;;;;;3.60;2.67;;;;;;;;;;5077814;28;20264;-56
2023/01/03 13:46:58;;;;;;;4.53;2.63;;;;;;;;;;5082791;28;20241;-57
2023/01/03 13:49:25;;;;;;;4.50;3.50;;;;;;;;;;5079599;28;20276;-57
2023/01/03 13:51:52;;;;;;;4.07;2.93;;;;;;;;;;5076678;28;20911;-57
2023/01/03 13:54:34;;;;;;;5.67;3.27;;;;;;;;;;5065056;28;20255;-57
2023/01/03 13:57:04;;;;;;;3.90;2.97;;;;;;;;;;5068859;28;20712;-57
2023/01/03 13:59:34;;;;;;;4.23;3.37;;;;;;;;;;5079394;28;20258;-57
2023/01/03 14:02:23;;;;;;;3.90;2.90;;;;;;;;;;5080170;28;20239;-57
2023/01/03 14:05:07;;;;;;;6.70;3.30;;;;;;;;;;5072362;28;20230;-57
2023/01/03 14:08:00;;;;;;;4.23;3.83;;;;;;;;;;5071633;28;20258;-57
2023/01/03 14:10:32;;;;;;;5.50;3.33;;;;;;;;;;5075210;28;20276;-58
2023/01/03 14:13:12;;;;;;;4.40;3.00;;;;;;;;;;5073321;28;20242;-57
2023/01/03 14:15:38;;;;;;;3.90;3.03;;;;;;;;;;5077110;28;20231;-59
2023/01/03 14:18:12;;;;;;;4.30;2.70;;;;;;;;;;5080351;28;20234;-60
2023/01/03 14:20:39;;;;;;;4.40;2.77;;;;;;;;;;5089965;28;20241;-57
2023/01/03 14:23:07;;;;;;;4.43;2.77;;;;;;;;;;5087649;28;20238;-58
2023/01/03 14:25:34;;;;;;;5.30;3.03;;;;;;;;;;5075367;28;20226;-58
2023/01/03 14:28:01;;;;;;;4.97;2.90;;;;;;;;;;5081230;28;20647;-56
2023/01/03 14:30:30;;;;;;;6.63;2.80;;;;;;;;;;5087237;28;20245;-57
2023/01/03 14:32:57;;;;;;;6.00;3.27;;;;;;;;;;5072624;28;20230;-57
2023/01/03 14:35:34;;;;;;;3.33;2.80;;;;;;;;;;5078525;28;20232;-57
2023/01/03 14:38:00;;;;;;;5.07;2.90;;;;;;;;;;5078952;28;20622;-58
2023/01/03 14:40:27;;;;;;;4.53;2.67;;;;;;;;;;5074127;28;20227;-56
2023/01/03 14:42:54;;;;;;;4.17;3.33;;;;;;;;;;5084813;28;20262;-58
2023/01/03 14:45:21;;;;;;;4.67;3.53;;;;;;;;;;5076304;28;20704;-58
2023/01/03 14:47:51;;;;;;;6.10;3.80;;;;;;;;;;5075698;28;20234;-60
2023/01/03 14:50:27;;;;;;;8.13;3.60;;;;;;;;;;5080533;28;20226;-58
2023/01/03 14:52:54;;;;;;;4.23;2.80;;;;;;;;;;5078283;28;20224;-58
2023/01/03 14:55:22;;;;;;;6.57;3.80;;;;;;;;;;5080332;28;20566;-60
2023/01/03 14:57:49;;;;;;;4.97;3.43;;;;;;;;;;5083214;28;20245;-59
2023/01/03 15:00:16;;;;;;;6.00;3.90;;;;;;;;;;5068587;28;20227;-58
2023/01/03 15:02:43;;;;;;;4.63;3.50;;;;;;;;;;5078039;28;20229;-61
2023/01/03 15:05:25;;;;;;;8.90;4.80;;;;;;;;;;5071294;28;20345;-58
2023/01/03 15:07:52;;;;;;;5.60;4.30;;;;;;;;;;5081233;28;20299;-60
2023/01/03 15:10:23;;;;;;;6.10;4.03;;;;;;;;;;5072485;28;20233;-60
2023/01/03 15:12:51;;;;;;;5.07;4.33;;;;;;;;;;5077913;28;20246;-61
2023/01/03 15:15:20;;;;;;;5.40;4.83;;;;;;;;;;5076092;28;20261;-59
2023/01/03 15:17:47;;;;;;;11.40;6.40;;;;;;;;;;5076763;28;20260;-60
2023/01/03 15:20:16;;;;;;;5.53;4.43;;;;;;;;;;5078067;28;20226;-60
2023/01/03 15:22:44;;;;;;;13.07;5.20;;;;;;;;;;5078910;28;20430;-59
2023/01/03 15:25:16;;;;;;;5.90;4.83;;;;;;;;;;5081264;28;20223;-59
2023/01/03 15:27:43;;;;;;;5.97;4.87;;;;;;;;;;5069840;28;20230;-59
2023/01/03 15:30:16;;;;;;;5.73;4.63;;;;;;;;;;5076081;28;20227;-59
2023/01/03 15:32:48;;;;;;;11.77;6.00;;;;;;;;;;5071193;28;20249;-69
2023/01/03 15:35:19;;;;;;;7.00;5.10;;;;;;;;;;5077962;28;20310;-57
2023/01/03 15:37:46;;;;;;;5.50;4.83;;;;;;;;;;5072968;28;20230;-60
2023/01/03 15:40:13;;;;;;;8.40;4.33;;;;;;;;;;5062917;28;20708;-63
2023/01/03 15:45:26;;;;;;;7.50;5.50;;;;;;;;;;5077693;28;20233;-58
2023/01/03 15:47:54;;;;;;;10.87;5.60;;;;;;;;;;5080689;28;20239;-58
2023/01/03 15:50:21;;;;;;;7.87;4.97;;;;;;;;;;5074782;28;20235;-58
2023/01/03 15:52:49;;;;;;;8.00;4.83;;;;;;;;;;5074799;28;20302;-62
2023/01/03 15:55:16;;;;;;;8.03;5.23;;;;;;;;;;5073796;28;20262;-59
2023/01/03 15:57:46;;;;;;;6.50;5.77;;;;;;;;;;5076616;28;20705;-59